Startpagina
METAR-TAF:

METAR-TAF

Vliegvelden :

Luchthaven Bratislava

Bratislava, Slowakije

breedte: 48-12N, lengte: 017-12E, hoogte: 133 m

Actueel weer

Dit bericht is 23 minuten geleden gemaakt, om 14:00 UTC
Wind 4 kt uit het zuidwesten, variërend tussen het zuiden en het noordwesten
Temperatuur 32°C
Vochtigheid 28%
Druk 1017 hPa
Zicht 10 km of meer
geen wolken onder 1500 m en geen cumulonimbus

METAR: LZIB 181400Z 23004KT 190V310 CAVOK 32/11 Q1017 NOSIG

Tijdstip: 16:23 (14:23 UTC)

Verwachting

Dit bericht is 3 uur en het 23 minuten geleden gemaakt, om 11:00 UTC
Verwachting geldig van 18 om 12 UTC tot 19 om 12 UTC
Wind 4 kt uit het noordnoordoosten
Zicht 10 km of meer
geen wolken onder 1500 m en geen cumulonimbus
Tijdelijke
van 18 om 12 UTC tot 18 om 18 UTC
Wind 6 kt uit het noordwesten
Wijzigt naar
van 19 om 10 UTC tot 19 om 12 UTC
Wind 8 kt uit het oostnoordoosten

TAF: LZIB 181100Z 1812/1912 02004KT CAVOK TEMPO 1812/1818 31006KT BECMG 1910/1912 06008KT

Waarnemingen en weersverwachtingen van meer dan 4000 vliegvelden (METAR en TAF).

De beschikbare stations zijn de gele en rode punten op de kaart.

Ga met uw muis naar het station om de naam te zien.

Klik dan om waarnemingen en weersverwachtingen te zien.

kaart wijzigen: klik op de groene knoppen met een zwart kruis om in te zoomen, op de groene knop met een streepje om uit te zoomen of op de groene pijlen voor aangrenzende kaarten.


METAR-TAF: